sensor_id;sensor_type;location;lat;lon;timestamp;pressure;altitude;pressure_sealevel;temperature;humidity
33781;BME280;20097;50.832;19.100;2023-05-23T00:03:02;98121.16;;;12.64;100.00
33781;BME280;20097;50.832;19.100;2023-05-23T00:08:07;98114.47;;;12.55;100.00
33781;BME280;20097;50.832;19.100;2023-05-23T00:13:13;98108.34;;;12.48;100.00
33781;BME280;20097;50.832;19.100;2023-05-23T00:18:18;98102.88;;;12.42;100.00
33781;BME280;20097;50.832;19.100;2023-05-23T00:23:22;98099.91;;;12.46;100.00
33781;BME280;20097;50.832;19.100;2023-05-23T00:28:28;98094.81;;;12.37;100.00
33781;BME280;20097;50.832;19.100;2023-05-23T00:33:33;98088.53;;;12.32;100.00
33781;BME280;20097;50.832;19.100;2023-05-23T00:38:38;98095.31;;;12.26;100.00
33781;BME280;20097;50.832;19.100;2023-05-23T00:43:44;98097.91;;;12.26;100.00
33781;BME280;20097;50.832;19.100;2023-05-23T00:48:49;98087.41;;;12.20;100.00
33781;BME280;20097;50.832;19.100;2023-05-23T00:53:53;98091.22;;;12.17;100.00
33781;BME280;20097;50.832;19.100;2023-05-23T00:59:00;98089.16;;;12.13;100.00
33781;BME280;20097;50.832;19.100;2023-05-23T01:04:04;98090.34;;;12.10;100.00
33781;BME280;20097;50.832;19.100;2023-05-23T01:09:10;98084.66;;;12.07;100.00
33781;BME280;20097;50.832;19.100;2023-05-23T01:14:23;98084.00;;;11.98;100.00
33781;BME280;20097;50.832;19.100;2023-05-23T01:19:57;98086.97;;;11.95;100.00
33781;BME280;20097;50.832;19.100;2023-05-23T01:25:13;98085.75;;;11.91;100.00
33781;BME280;20097;50.832;19.100;2023-05-23T01:30:25;98082.50;;;11.89;100.00
33781;BME280;20097;50.832;19.100;2023-05-23T01:35:34;98076.28;;;11.90;100.00
33781;BME280;20097;50.832;19.100;2023-05-23T01:40:39;98077.66;;;11.86;100.00
33781;BME280;20097;50.832;19.100;2023-05-23T01:45:47;98059.09;;;11.81;100.00
33781;BME280;20097;50.832;19.100;2023-05-23T01:50:52;98062.78;;;11.66;100.00
33781;BME280;20097;50.832;19.100;2023-05-23T01:55:58;98063.94;;;11.63;100.00
33781;BME280;20097;50.832;19.100;2023-05-23T02:01:07;98063.75;;;11.50;100.00
33781;BME280;20097;50.832;19.100;2023-05-23T02:06:12;98067.00;;;11.52;100.00
33781;BME280;20097;50.832;19.100;2023-05-23T02:11:16;98067.56;;;11.48;100.00
33781;BME280;20097;50.832;19.100;2023-05-23T02:16:22;98062.28;;;11.41;100.00
33781;BME280;20097;50.832;19.100;2023-05-23T02:21:28;98055.78;;;11.37;100.00
33781;BME280;20097;50.832;19.100;2023-05-23T02:26:38;98062.19;;;11.35;100.00
33781;BME280;20097;50.832;19.100;2023-05-23T02:31:45;98058.50;;;11.29;100.00
33781;BME280;20097;50.832;19.100;2023-05-23T02:36:49;98053.66;;;11.26;100.00
33781;BME280;20097;50.832;19.100;2023-05-23T02:41:54;98051.84;;;11.27;100.00
33781;BME280;20097;50.832;19.100;2023-05-23T02:47:02;98055.63;;;11.24;100.00
33781;BME280;20097;50.832;19.100;2023-05-23T02:52:06;98046.56;;;11.20;100.00
33781;BME280;20097;50.832;19.100;2023-05-23T02:57:10;98048.97;;;11.22;100.00
33781;BME280;20097;50.832;19.100;2023-05-23T03:02:17;98036.69;;;11.22;100.00
33781;BME280;20097;50.832;19.100;2023-05-23T03:07:22;98038.34;;;11.23;100.00
33781;BME280;20097;50.832;19.100;2023-05-23T03:12:31;98037.16;;;11.26;100.00
33781;BME280;20097;50.832;19.100;2023-05-23T03:17:37;98031.94;;;11.26;100.00
33781;BME280;20097;50.832;19.100;2023-05-23T03:22:41;98029.69;;;11.23;100.00
33781;BME280;20097;50.832;19.100;2023-05-23T03:27:47;98034.00;;;11.30;100.00
33781;BME280;20097;50.832;19.100;2023-05-23T03:32:53;98013.09;;;11.30;100.00
33781;BME280;20097;50.832;19.100;2023-05-23T03:37:57;98014.72;;;11.31;100.00
33781;BME280;20097;50.832;19.100;2023-05-23T03:43:02;98006.31;;;11.36;100.00
33781;BME280;20097;50.832;19.100;2023-05-23T03:48:10;98014.16;;;11.36;100.00
33781;BME280;20097;50.832;19.100;2023-05-23T03:53:16;97999.38;;;11.43;100.00
33781;BME280;20097;50.832;19.100;2023-05-23T03:58:21;98004.03;;;11.47;100.00
33781;BME280;20097;50.832;19.100;2023-05-23T04:03:31;98004.72;;;11.56;100.00
33781;BME280;20097;50.832;19.100;2023-05-23T04:08:38;98004.06;;;11.68;100.00
33781;BME280;20097;50.832;19.100;2023-05-23T04:13:44;98006.78;;;11.81;100.00
33781;BME280;20097;50.832;19.100;2023-05-23T04:18:50;97996.81;;;11.91;100.00
33781;BME280;20097;50.832;19.100;2023-05-23T04:23:57;98011.84;;;12.10;100.00
33781;BME280;20097;50.832;19.100;2023-05-23T04:29:02;98008.16;;;12.26;100.00
33781;BME280;20097;50.832;19.100;2023-05-23T04:34:09;98003.22;;;12.44;100.00
33781;BME280;20097;50.832;19.100;2023-05-23T04:39:15;98005.16;;;12.63;100.00
33781;BME280;20097;50.832;19.100;2023-05-23T04:44:48;98000.81;;;12.83;100.00
33781;BME280;20097;50.832;19.100;2023-05-23T04:49:59;98002.38;;;13.05;100.00
33781;BME280;20097;50.832;19.100;2023-05-23T04:55:07;97998.38;;;13.22;100.00
33781;BME280;20097;50.832;19.100;2023-05-23T05:00:13;97995.00;;;13.35;100.00
33781;BME280;20097;50.832;19.100;2023-05-23T05:05:18;97987.19;;;13.54;100.00
33781;BME280;20097;50.832;19.100;2023-05-23T05:10:23;97988.59;;;13.70;100.00
33781;BME280;20097;50.832;19.100;2023-05-23T05:15:27;97983.16;;;13.91;99.07
33781;BME280;20097;50.832;19.100;2023-05-23T05:20:35;97976.72;;;14.13;96.07
33781;BME280;20097;50.832;19.100;2023-05-23T05:25:39;97979.94;;;14.28;97.09
33781;BME280;20097;50.832;19.100;2023-05-23T05:30:44;97983.56;;;14.40;96.67
33781;BME280;20097;50.832;19.100;2023-05-23T05:35:51;97985.09;;;14.67;92.96
33781;BME280;20097;50.832;19.100;2023-05-23T05:40:56;97981.00;;;14.91;89.17
33781;BME280;20097;50.832;19.100;2023-05-23T05:46:05;97974.81;;;15.17;88.95
33781;BME280;20097;50.832;19.100;2023-05-23T05:51:11;97982.78;;;15.41;86.30
33781;BME280;20097;50.832;19.100;2023-05-23T05:56:16;97977.56;;;15.66;87.24
33781;BME280;20097;50.832;19.100;2023-05-23T06:01:21;97977.25;;;15.80;84.67
33781;BME280;20097;50.832;19.100;2023-05-23T06:06:27;97968.94;;;16.08;85.02
33781;BME280;20097;50.832;19.100;2023-05-23T06:11:32;97972.94;;;16.35;83.26
33781;BME280;20097;50.832;19.100;2023-05-23T06:16:37;97964.41;;;16.58;81.79
33781;BME280;20097;50.832;19.100;2023-05-23T06:21:43;97966.81;;;16.77;82.22
33781;BME280;20097;50.832;19.100;2023-05-23T06:26:49;97960.78;;;17.06;78.70
33781;BME280;20097;50.832;19.100;2023-05-23T06:31:53;97961.25;;;17.33;79.74
33781;BME280;20097;50.832;19.100;2023-05-23T06:36:59;97964.34;;;17.59;73.44
33781;BME280;20097;50.832;19.100;2023-05-23T06:42:04;97951.19;;;17.83;71.67
33781;BME280;20097;50.832;19.100;2023-05-23T06:47:24;97954.78;;;18.00;71.36
33781;BME280;20097;50.832;19.100;2023-05-23T06:52:30;97946.41;;;18.26;69.90
33781;BME280;20097;50.832;19.100;2023-05-23T06:57:35;97951.69;;;18.60;70.44
33781;BME280;20097;50.832;19.100;2023-05-23T07:02:39;97959.16;;;18.91;68.21
33781;BME280;20097;50.832;19.100;2023-05-23T07:07:46;97954.31;;;19.00;65.12
33781;BME280;20097;50.832;19.100;2023-05-23T07:12:51;97948.13;;;19.34;64.68
33781;BME280;20097;50.832;19.100;2023-05-23T07:17:57;97946.50;;;19.61;63.01
33781;BME280;20097;50.832;19.100;2023-05-23T07:23:03;97953.00;;;19.70;61.75
33781;BME280;20097;50.832;19.100;2023-05-23T07:28:09;97936.06;;;19.88;63.77
33781;BME280;20097;50.832;19.100;2023-05-23T07:33:14;97928.31;;;20.14;61.27
33781;BME280;20097;50.832;19.100;2023-05-23T07:38:21;97931.19;;;20.29;60.59
33781;BME280;20097;50.832;19.100;2023-05-23T07:43:26;97923.59;;;20.38;59.74
33781;BME280;20097;50.832;19.100;2023-05-23T07:48:30;97936.38;;;20.63;57.60
33781;BME280;20097;50.832;19.100;2023-05-23T07:53:36;97925.03;;;20.89;56.79
33781;BME280;20097;50.832;19.100;2023-05-23T07:58:45;97947.22;;;20.99;52.33
33781;BME280;20097;50.832;19.100;2023-05-23T08:03:50;97938.00;;;21.07;51.84
33781;BME280;20097;50.832;19.100;2023-05-23T08:09:02;97939.81;;;21.28;51.04
33781;BME280;20097;50.832;19.100;2023-05-23T08:14:09;97944.69;;;21.36;50.04
33781;BME280;20097;50.832;19.100;2023-05-23T08:19:13;97933.09;;;21.47;50.89
33781;BME280;20097;50.832;19.100;2023-05-23T08:24:20;97937.91;;;21.50;49.01
33781;BME280;20097;50.832;19.100;2023-05-23T08:29:25;97949.09;;;21.52;47.61
33781;BME280;20097;50.832;19.100;2023-05-23T08:34:30;97933.41;;;21.50;48.66
33781;BME280;20097;50.832;19.100;2023-05-23T08:39:36;97939.81;;;21.54;46.94
33781;BME280;20097;50.832;19.100;2023-05-23T08:44:57;97944.78;;;21.46;46.11
33781;BME280;20097;50.832;19.100;2023-05-23T08:50:02;97943.78;;;21.52;46.43
33781;BME280;20097;50.832;19.100;2023-05-23T08:55:10;97945.91;;;21.55;45.00
33781;BME280;20097;50.832;19.100;2023-05-23T09:00:16;97934.78;;;21.85;47.75
33781;BME280;20097;50.832;19.100;2023-05-23T09:05:20;97937.28;;;21.96;46.94
33781;BME280;20097;50.832;19.100;2023-05-23T09:10:27;97928.75;;;21.94;46.19
33781;BME280;20097;50.832;19.100;2023-05-23T09:15:32;97922.03;;;22.18;45.71
33781;BME280;20097;50.832;19.100;2023-05-23T09:20:39;97922.88;;;22.29;46.14
33781;BME280;20097;50.832;19.100;2023-05-23T09:25:47;97926.16;;;22.41;46.32
33781;BME280;20097;50.832;19.100;2023-05-23T09:30:57;97924.91;;;22.53;46.77
33781;BME280;20097;50.832;19.100;2023-05-23T09:36:04;97932.44;;;22.66;45.13
33781;BME280;20097;50.832;19.100;2023-05-23T09:41:10;97923.22;;;22.94;44.79
33781;BME280;20097;50.832;19.100;2023-05-23T09:46:15;97922.31;;;23.55;45.82
33781;BME280;20097;50.832;19.100;2023-05-23T09:51:21;97915.78;;;22.96;43.50
33781;BME280;20097;50.832;19.100;2023-05-23T09:56:27;97911.69;;;22.68;45.60
33781;BME280;20097;50.832;19.100;2023-05-23T10:01:32;97911.00;;;22.46;45.19
33781;BME280;20097;50.832;19.100;2023-05-23T10:06:40;97909.03;;;22.78;46.30
33781;BME280;20097;50.832;19.100;2023-05-23T10:12:46;97904.91;;;23.08;46.58
33781;BME280;20097;50.832;19.100;2023-05-23T10:18:08;97878.38;;;23.63;47.18
33781;BME280;20097;50.832;19.100;2023-05-23T10:23:15;97879.09;;;23.18;45.49
33781;BME280;20097;50.832;19.100;2023-05-23T10:28:21;97872.44;;;23.26;46.55
33781;BME280;20097;50.832;19.100;2023-05-23T10:33:27;97884.47;;;23.68;45.47
33781;BME280;20097;50.832;19.100;2023-05-23T10:38:41;97881.03;;;23.63;44.28
33781;BME280;20097;50.832;19.100;2023-05-23T10:43:56;97885.56;;;23.77;43.34
33781;BME280;20097;50.832;19.100;2023-05-23T10:49:07;97870.78;;;24.35;44.32
33781;BME280;20097;50.832;19.100;2023-05-23T10:54:13;97901.97;;;24.45;42.09
33781;BME280;20097;50.832;19.100;2023-05-23T10:59:27;97881.75;;;24.28;42.76
33781;BME280;20097;50.832;19.100;2023-05-23T11:04:31;97887.34;;;24.32;42.35
33781;BME280;20097;50.832;19.100;2023-05-23T11:10:08;97881.78;;;24.18;41.32
33781;BME280;20097;50.832;19.100;2023-05-23T11:15:21;97881.63;;;24.74;42.45
33781;BME280;20097;50.832;19.100;2023-05-23T11:20:26;97884.09;;;24.55;41.87
33781;BME280;20097;50.832;19.100;2023-05-23T11:25:41;97876.03;;;24.65;43.23
33781;BME280;20097;50.832;19.100;2023-05-23T11:30:49;97884.41;;;25.07;41.65
33781;BME280;20097;50.832;19.100;2023-05-23T11:35:54;97883.19;;;24.85;42.04
33781;BME280;20097;50.832;19.100;2023-05-23T11:40:59;97886.97;;;25.22;41.71
33781;BME280;20097;50.832;19.100;2023-05-23T11:46:08;97873.19;;;25.05;42.18
33781;BME280;20097;50.832;19.100;2023-05-23T11:51:13;97872.22;;;25.30;41.10
33781;BME280;20097;50.832;19.100;2023-05-23T11:56:18;97870.13;;;25.27;42.00
33781;BME280;20097;50.832;19.100;2023-05-23T12:01:29;97870.34;;;25.69;41.01
33781;BME280;20097;50.832;19.100;2023-05-23T12:06:35;97865.63;;;25.61;40.47
33781;BME280;20097;50.832;19.100;2023-05-23T12:11:41;97855.38;;;25.97;41.70
33781;BME280;20097;50.832;19.100;2023-05-23T12:16:48;97859.25;;;26.14;40.11
33781;BME280;20097;50.832;19.100;2023-05-23T12:21:55;97866.16;;;26.44;40.25
33781;BME280;20097;50.832;19.100;2023-05-23T12:27:01;97849.75;;;26.27;40.97
33781;BME280;20097;50.832;19.100;2023-05-23T12:32:08;97857.03;;;26.21;39.78
33781;BME280;20097;50.832;19.100;2023-05-23T12:37:12;97844.28;;;26.13;41.08
33781;BME280;20097;50.832;19.100;2023-05-23T12:42:23;97845.56;;;26.63;41.44
33781;BME280;20097;50.832;19.100;2023-05-23T12:47:29;97836.13;;;26.47;40.02
33781;BME280;20097;50.832;19.100;2023-05-23T12:52:33;97822.66;;;26.10;41.47
33781;BME280;20097;50.832;19.100;2023-05-23T12:57:39;97814.59;;;25.57;42.71
33781;BME280;20097;50.832;19.100;2023-05-23T13:02:44;97813.88;;;25.08;42.17
33781;BME280;20097;50.832;19.100;2023-05-23T13:07:49;97796.84;;;24.99;42.36
33781;BME280;20097;50.832;19.100;2023-05-23T13:12:53;97804.56;;;25.68;41.86
33781;BME280;20097;50.832;19.100;2023-05-23T13:17:58;97803.75;;;25.05;42.43
33781;BME280;20097;50.832;19.100;2023-05-23T13:23:05;97788.69;;;24.81;43.39
33781;BME280;20097;50.832;19.100;2023-05-23T13:28:09;97802.81;;;24.86;44.87
33781;BME280;20097;50.832;19.100;2023-05-23T13:33:16;97774.72;;;24.45;49.94
33781;BME280;20097;50.832;19.100;2023-05-23T13:38:22;97794.25;;;24.35;51.04
33781;BME280;20097;50.832;19.100;2023-05-23T13:43:29;97787.63;;;24.28;52.03
33781;BME280;20097;50.832;19.100;2023-05-23T13:48:34;97796.44;;;24.13;53.57
33781;BME280;20097;50.832;19.100;2023-05-23T13:53:39;97800.78;;;23.79;53.38
33781;BME280;20097;50.832;19.100;2023-05-23T13:58:44;97785.09;;;23.68;54.91
33781;BME280;20097;50.832;19.100;2023-05-23T14:03:50;97791.47;;;23.22;55.65
33781;BME280;20097;50.832;19.100;2023-05-23T14:08:54;97796.78;;;23.12;57.02
33781;BME280;20097;50.832;19.100;2023-05-23T14:13:59;97795.72;;;22.87;57.49
33781;BME280;20097;50.832;19.100;2023-05-23T14:19:04;97803.41;;;22.79;57.84
33781;BME280;20097;50.832;19.100;2023-05-23T14:24:09;97807.66;;;22.70;58.84
33781;BME280;20097;50.832;19.100;2023-05-23T14:29:13;97810.00;;;22.56;60.56
33781;BME280;20097;50.832;19.100;2023-05-23T14:34:19;97812.78;;;22.30;62.73
33781;BME280;20097;50.832;19.100;2023-05-23T14:39:24;97810.28;;;22.03;68.99
33781;BME280;20097;50.832;19.100;2023-05-23T14:44:28;97806.22;;;21.86;72.00
33781;BME280;20097;50.832;19.100;2023-05-23T14:49:35;97801.69;;;21.86;71.21
33781;BME280;20097;50.832;19.100;2023-05-23T14:54:39;97801.03;;;22.16;70.38
33781;BME280;20097;50.832;19.100;2023-05-23T14:59:45;97803.44;;;23.19;66.79
33781;BME280;20097;50.832;19.100;2023-05-23T15:04:51;97817.00;;;23.93;61.61
33781;BME280;20097;50.832;19.100;2023-05-23T15:09:55;97803.22;;;23.56;64.98
33781;BME280;20097;50.832;19.100;2023-05-23T15:15:00;97799.78;;;23.35;67.97
33781;BME280;20097;50.832;19.100;2023-05-23T15:20:10;97801.59;;;23.25;67.06
33781;BME280;20097;50.832;19.100;2023-05-23T15:25:15;97793.09;;;23.33;68.58
33781;BME280;20097;50.832;19.100;2023-05-23T15:30:26;97790.41;;;23.02;67.13
33781;BME280;20097;50.832;19.100;2023-05-23T15:35:34;97794.63;;;22.83;71.50
33781;BME280;20097;50.832;19.100;2023-05-23T15:40:39;97792.97;;;22.57;73.05
33781;BME280;20097;50.832;19.100;2023-05-23T15:45:44;97798.16;;;22.22;76.16
33781;BME280;20097;50.832;19.100;2023-05-23T15:50:50;97794.28;;;21.56;80.63
33781;BME280;20097;50.832;19.100;2023-05-23T15:55:54;97776.59;;;21.30;83.71
33781;BME280;20097;50.832;19.100;2023-05-23T16:00:58;97779.03;;;21.05;86.07
33781;BME280;20097;50.832;19.100;2023-05-23T16:06:04;97765.78;;;20.84;86.49
33781;BME280;20097;50.832;19.100;2023-05-23T16:11:09;97772.47;;;20.38;88.59
33781;BME280;20097;50.832;19.100;2023-05-23T16:16:13;97767.75;;;20.40;88.73
33781;BME280;20097;50.832;19.100;2023-05-23T16:21:19;97777.91;;;20.26;89.56
33781;BME280;20097;50.832;19.100;2023-05-23T16:26:23;97777.84;;;20.21;92.94
33781;BME280;20097;50.832;19.100;2023-05-23T16:31:29;97782.47;;;20.09;95.37
33781;BME280;20097;50.832;19.100;2023-05-23T16:36:35;97782.38;;;20.04;94.05
33781;BME280;20097;50.832;19.100;2023-05-23T16:41:40;97784.72;;;20.01;100.00
33781;BME280;20097;50.832;19.100;2023-05-23T16:46:45;97781.69;;;19.92;98.83
33781;BME280;20097;50.832;19.100;2023-05-23T16:51:51;97786.38;;;19.85;95.38
33781;BME280;20097;50.832;19.100;2023-05-23T16:56:55;97798.09;;;19.89;94.42
33781;BME280;20097;50.832;19.100;2023-05-23T17:02:03;97791.13;;;19.83;92.76
33781;BME280;20097;50.832;19.100;2023-05-23T17:07:09;97785.19;;;19.76;85.50
33781;BME280;20097;50.832;19.100;2023-05-23T17:12:14;97788.41;;;19.62;85.98
33781;BME280;20097;50.832;19.100;2023-05-23T17:17:18;97790.75;;;19.58;86.64
33781;BME280;20097;50.832;19.100;2023-05-23T17:22:24;97790.75;;;19.58;88.44
33781;BME280;20097;50.832;19.100;2023-05-23T17:27:28;97796.47;;;19.50;87.54
33781;BME280;20097;50.832;19.100;2023-05-23T17:32:33;97799.44;;;19.37;86.17
33781;BME280;20097;50.832;19.100;2023-05-23T17:37:39;97798.81;;;19.30;90.77
33781;BME280;20097;50.832;19.100;2023-05-23T17:42:47;97803.34;;;19.18;93.70
33781;BME280;20097;50.832;19.100;2023-05-23T17:47:51;97797.78;;;19.03;99.94
33781;BME280;20097;50.832;19.100;2023-05-23T17:53:00;97812.44;;;18.94;94.71
33781;BME280;20097;50.832;19.100;2023-05-23T17:58:06;97820.78;;;18.86;94.29
33781;BME280;20097;50.832;19.100;2023-05-23T18:03:10;97821.72;;;18.80;90.84
33781;BME280;20097;50.832;19.100;2023-05-23T18:08:16;97828.50;;;18.76;91.16
33781;BME280;20097;50.832;19.100;2023-05-23T18:13:20;97826.50;;;18.66;97.81
33781;BME280;20097;50.832;19.100;2023-05-23T18:18:24;97826.53;;;18.55;100.00
33781;BME280;20097;50.832;19.100;2023-05-23T18:23:30;97825.66;;;18.26;100.00
33781;BME280;20097;50.832;19.100;2023-05-23T18:28:34;97832.00;;;18.14;100.00
33781;BME280;20097;50.832;19.100;2023-05-23T18:33:39;97838.69;;;18.05;100.00
33781;BME280;20097;50.832;19.100;2023-05-23T18:38:45;97846.97;;;17.97;100.00
33781;BME280;20097;50.832;19.100;2023-05-23T18:43:50;97856.72;;;17.85;100.00
33781;BME280;20097;50.832;19.100;2023-05-23T18:48:54;97860.72;;;17.64;100.00
33781;BME280;20097;50.832;19.100;2023-05-23T18:54:00;97860.00;;;17.45;100.00
33781;BME280;20097;50.832;19.100;2023-05-23T18:59:05;97861.59;;;17.35;100.00
33781;BME280;20097;50.832;19.100;2023-05-23T19:04:09;97862.00;;;17.20;100.00
33781;BME280;20097;50.832;19.100;2023-05-23T19:09:15;97864.16;;;17.12;100.00
33781;BME280;20097;50.832;19.100;2023-05-23T19:14:19;97864.75;;;16.84;100.00
33781;BME280;20097;50.832;19.100;2023-05-23T19:19:23;97870.94;;;16.60;100.00
33781;BME280;20097;50.832;19.100;2023-05-23T19:24:32;97866.63;;;16.48;100.00
33781;BME280;20097;50.832;19.100;2023-05-23T19:29:36;97861.19;;;16.42;100.00
33781;BME280;20097;50.832;19.100;2023-05-23T19:34:41;97867.56;;;16.35;100.00
33781;BME280;20097;50.832;19.100;2023-05-23T19:39:47;97864.06;;;16.23;100.00
33781;BME280;20097;50.832;19.100;2023-05-23T19:44:52;97872.75;;;16.23;100.00
33781;BME280;20097;50.832;19.100;2023-05-23T19:49:56;97871.66;;;16.13;100.00
33781;BME280;20097;50.832;19.100;2023-05-23T19:55:02;97873.13;;;16.09;100.00
33781;BME280;20097;50.832;19.100;2023-05-23T20:00:08;97885.84;;;16.12;100.00
33781;BME280;20097;50.832;19.100;2023-05-23T20:05:13;97876.13;;;16.12;100.00
33781;BME280;20097;50.832;19.100;2023-05-23T20:10:20;97876.88;;;16.19;100.00
33781;BME280;20097;50.832;19.100;2023-05-23T20:15:24;97884.25;;;16.29;100.00
33781;BME280;20097;50.832;19.100;2023-05-23T20:20:41;97890.59;;;16.39;100.00
33781;BME280;20097;50.832;19.100;2023-05-23T20:25:47;97896.47;;;16.41;100.00
33781;BME280;20097;50.832;19.100;2023-05-23T20:30:51;97898.03;;;16.49;100.00
33781;BME280;20097;50.832;19.100;2023-05-23T20:35:56;97896.94;;;16.57;100.00
33781;BME280;20097;50.832;19.100;2023-05-23T20:41:02;97891.81;;;16.62;100.00
33781;BME280;20097;50.832;19.100;2023-05-23T20:46:09;97899.03;;;16.66;100.00
33781;BME280;20097;50.832;19.100;2023-05-23T20:51:13;97896.91;;;16.75;100.00
33781;BME280;20097;50.832;19.100;2023-05-23T20:56:19;97903.34;;;16.79;100.00
33781;BME280;20097;50.832;19.100;2023-05-23T21:01:24;97906.56;;;16.81;100.00
33781;BME280;20097;50.832;19.100;2023-05-23T21:06:29;97914.84;;;16.84;100.00
33781;BME280;20097;50.832;19.100;2023-05-23T21:11:35;97916.66;;;16.84;100.00
33781;BME280;20097;50.832;19.100;2023-05-23T21:16:40;97915.66;;;16.85;100.00
33781;BME280;20097;50.832;19.100;2023-05-23T21:21:44;97918.28;;;16.85;100.00
33781;BME280;20097;50.832;19.100;2023-05-23T21:26:50;97918.72;;;16.82;100.00
33781;BME280;20097;50.832;19.100;2023-05-23T21:31:54;97929.03;;;16.83;100.00
33781;BME280;20097;50.832;19.100;2023-05-23T21:36:59;97936.16;;;16.83;100.00
33781;BME280;20097;50.832;19.100;2023-05-23T21:42:06;97933.75;;;16.81;100.00
33781;BME280;20097;50.832;19.100;2023-05-23T21:47:11;97937.47;;;16.74;100.00
33781;BME280;20097;50.832;19.100;2023-05-23T21:52:15;97937.13;;;16.70;100.00
33781;BME280;20097;50.832;19.100;2023-05-23T21:57:21;97937.38;;;16.62;100.00
33781;BME280;20097;50.832;19.100;2023-05-23T22:02:25;97944.06;;;16.65;100.00
33781;BME280;20097;50.832;19.100;2023-05-23T22:07:29;97938.44;;;16.61;100.00
33781;BME280;20097;50.832;19.100;2023-05-23T22:12:35;97942.53;;;16.57;100.00
33781;BME280;20097;50.832;19.100;2023-05-23T22:17:39;97935.66;;;16.56;100.00
33781;BME280;20097;50.832;19.100;2023-05-23T22:22:45;97936.25;;;16.58;100.00
33781;BME280;20097;50.832;19.100;2023-05-23T22:27:51;97933.00;;;16.56;100.00
33781;BME280;20097;50.832;19.100;2023-05-23T22:32:55;97943.91;;;16.60;100.00
33781;BME280;20097;50.832;19.100;2023-05-23T22:38:00;97943.78;;;16.55;100.00
33781;BME280;20097;50.832;19.100;2023-05-23T22:43:06;97944.81;;;16.54;100.00
33781;BME280;20097;50.832;19.100;2023-05-23T22:48:10;97943.03;;;16.48;100.00
33781;BME280;20097;50.832;19.100;2023-05-23T22:53:14;97946.72;;;16.40;100.00
33781;BME280;20097;50.832;19.100;2023-05-23T22:58:20;97941.91;;;16.37;100.00
33781;BME280;20097;50.832;19.100;2023-05-23T23:03:24;97947.31;;;16.24;100.00
33781;BME280;20097;50.832;19.100;2023-05-23T23:08:29;97947.81;;;16.14;100.00
33781;BME280;20097;50.832;19.100;2023-05-23T23:13:35;97951.81;;;16.17;100.00
33781;BME280;20097;50.832;19.100;2023-05-23T23:18:39;97942.97;;;16.11;100.00
33781;BME280;20097;50.832;19.100;2023-05-23T23:23:43;97939.81;;;16.03;100.00
33781;BME280;20097;50.832;19.100;2023-05-23T23:28:49;97935.22;;;15.98;100.00
33781;BME280;20097;50.832;19.100;2023-05-23T23:33:53;97934.53;;;16.03;100.00
33781;BME280;20097;50.832;19.100;2023-05-23T23:38:58;97939.81;;;16.03;100.00
33781;BME280;20097;50.832;19.100;2023-05-23T23:44:03;97931.00;;;15.91;100.00
33781;BME280;20097;50.832;19.100;2023-05-23T23:49:08;97933.13;;;15.82;100.00
33781;BME280;20097;50.832;19.100;2023-05-23T23:54:12;97940.84;;;15.77;100.00
33781;BME280;20097;50.832;19.100;2023-05-23T23:59:18;97946.00;;;15.66;100.00
